sensor_id;sensor_type;location;lat;lon;timestamp;temperature;humidity
24636;DHT22;12772;49.794;10.024;2022-12-07T00:02:42;5.80;58.20
24636;DHT22;12772;49.794;10.024;2022-12-07T00:06:46;6.00;58.50
24636;DHT22;12772;49.794;10.024;2022-12-07T00:11:06;5.40;58.10
24636;DHT22;12772;49.794;10.024;2022-12-07T00:15:09;5.40;58.10
24636;DHT22;12772;49.794;10.024;2022-12-07T00:19:12;6.10;59.00
24636;DHT22;12772;49.794;10.024;2022-12-07T00:23:15;5.80;58.80
24636;DHT22;12772;49.794;10.024;2022-12-07T00:27:17;5.90;59.10
24636;DHT22;12772;49.794;10.024;2022-12-07T00:31:21;6.10;59.10
24636;DHT22;12772;49.794;10.024;2022-12-07T00:35:23;5.30;58.50
24636;DHT22;12772;49.794;10.024;2022-12-07T00:39:25;5.30;58.50
24636;DHT22;12772;49.794;10.024;2022-12-07T00:43:27;5.60;58.70
24636;DHT22;12772;49.794;10.024;2022-12-07T00:47:29;5.90;58.80
24636;DHT22;12772;49.794;10.024;2022-12-07T00:51:31;5.50;58.10
24636;DHT22;12772;49.794;10.024;2022-12-07T00:55:34;5.70;58.50
24636;DHT22;12772;49.794;10.024;2022-12-07T00:59:36;5.60;58.40
24636;DHT22;12772;49.794;10.024;2022-12-07T01:03:38;5.80;58.20
24636;DHT22;12772;49.794;10.024;2022-12-07T01:07:40;6.00;58.60
24636;DHT22;12772;49.794;10.024;2022-12-07T01:11:42;6.00;58.10
24636;DHT22;12772;49.794;10.024;2022-12-07T01:15:45;5.90;57.70
24636;DHT22;12772;49.794;10.024;2022-12-07T01:19:47;5.80;57.80
24636;DHT22;12772;49.794;10.024;2022-12-07T01:23:49;5.30;57.20
24636;DHT22;12772;49.794;10.024;2022-12-07T01:27:51;5.60;57.50
24636;DHT22;12772;49.794;10.024;2022-12-07T01:31:53;6.10;57.80
24636;DHT22;12772;49.794;10.024;2022-12-07T01:36:16;6.20;57.80
24636;DHT22;12772;49.794;10.024;2022-12-07T01:40:18;6.10;57.50
24636;DHT22;12772;49.794;10.024;2022-12-07T01:44:26;6.10;57.30
24636;DHT22;12772;49.794;10.024;2022-12-07T01:48:36;6.10;56.60
24636;DHT22;12772;49.794;10.024;2022-12-07T01:52:39;5.60;55.80
24636;DHT22;12772;49.794;10.024;2022-12-07T01:56:49;5.50;56.00
24636;DHT22;12772;49.794;10.024;2022-12-07T02:00:52;5.60;56.10
24636;DHT22;12772;49.794;10.024;2022-12-07T02:04:55;5.80;56.00
24636;DHT22;12772;49.794;10.024;2022-12-07T02:08:58;5.50;55.90
24636;DHT22;12772;49.794;10.024;2022-12-07T02:21:48;5.80;55.90
24636;DHT22;12772;49.794;10.024;2022-12-07T02:30:02;5.80;56.00
24636;DHT22;12772;49.794;10.024;2022-12-07T02:34:09;5.80;55.80
24636;DHT22;12772;49.794;10.024;2022-12-07T02:42:24;5.40;55.20
24636;DHT22;12772;49.794;10.024;2022-12-07T02:46:33;5.60;55.30
24636;DHT22;12772;49.794;10.024;2022-12-07T02:50:37;5.50;55.30
24636;DHT22;12772;49.794;10.024;2022-12-07T02:54:39;5.80;55.60
24636;DHT22;12772;49.794;10.024;2022-12-07T03:03:12;6.00;55.70
24636;DHT22;12772;49.794;10.024;2022-12-07T03:11:55;6.00;55.70
24636;DHT22;12772;49.794;10.024;2022-12-07T03:15:57;6.00;55.80
24636;DHT22;12772;49.794;10.024;2022-12-07T03:20:04;5.90;55.50
24636;DHT22;12772;49.794;10.024;2022-12-07T03:24:15;6.00;55.80
24636;DHT22;12772;49.794;10.024;2022-12-07T03:28:22;5.30;55.40
24636;DHT22;12772;49.794;10.024;2022-12-07T03:32:32;5.70;55.90
24636;DHT22;12772;49.794;10.024;2022-12-07T03:36:50;5.70;55.90
24636;DHT22;12772;49.794;10.024;2022-12-07T03:41:04;5.70;55.80
24636;DHT22;12772;49.794;10.024;2022-12-07T03:45:08;5.70;55.80
24636;DHT22;12772;49.794;10.024;2022-12-07T03:49:32;5.60;55.70
24636;DHT22;12772;49.794;10.024;2022-12-07T03:53:48;5.20;55.50
24636;DHT22;12772;49.794;10.024;2022-12-07T03:57:55;5.40;55.50
24636;DHT22;12772;49.794;10.024;2022-12-07T04:02:03;5.20;55.40
24636;DHT22;12772;49.794;10.024;2022-12-07T04:06:05;5.20;55.50
24636;DHT22;12772;49.794;10.024;2022-12-07T04:10:08;5.70;56.20
24636;DHT22;12772;49.794;10.024;2022-12-07T04:14:10;5.50;56.00
24636;DHT22;12772;49.794;10.024;2022-12-07T04:18:21;5.60;56.10
24636;DHT22;12772;49.794;10.024;2022-12-07T04:22:23;5.70;56.40
24636;DHT22;12772;49.794;10.024;2022-12-07T04:26:25;5.70;56.10
24636;DHT22;12772;49.794;10.024;2022-12-07T04:30:27;5.60;56.10
24636;DHT22;12772;49.794;10.024;2022-12-07T04:34:29;5.80;56.40
24636;DHT22;12772;49.794;10.024;2022-12-07T04:38:31;5.70;56.00
24636;DHT22;12772;49.794;10.024;2022-12-07T04:42:33;5.20;55.60
24636;DHT22;12772;49.794;10.024;2022-12-07T04:46:35;5.70;55.80
24636;DHT22;12772;49.794;10.024;2022-12-07T04:50:37;5.40;55.10
24636;DHT22;12772;49.794;10.024;2022-12-07T04:54:39;5.60;55.60
24636;DHT22;12772;49.794;10.024;2022-12-07T04:58:43;5.80;55.80
24636;DHT22;12772;49.794;10.024;2022-12-07T05:02:46;5.70;55.60
24636;DHT22;12772;49.794;10.024;2022-12-07T05:06:48;5.40;55.60
24636;DHT22;12772;49.794;10.024;2022-12-07T05:10:50;5.60;55.80
24636;DHT22;12772;49.794;10.024;2022-12-07T05:14:52;5.70;55.60
24636;DHT22;12772;49.794;10.024;2022-12-07T05:18:54;5.60;55.50
24636;DHT22;12772;49.794;10.024;2022-12-07T05:22:56;5.10;54.70
24636;DHT22;12772;49.794;10.024;2022-12-07T05:26:59;5.50;55.30
24636;DHT22;12772;49.794;10.024;2022-12-07T05:31:01;5.50;55.70
24636;DHT22;12772;49.794;10.024;2022-12-07T05:35:04;5.50;55.40
24636;DHT22;12772;49.794;10.024;2022-12-07T05:39:06;5.70;55.70
24636;DHT22;12772;49.794;10.024;2022-12-07T05:43:09;5.00;55.00
24636;DHT22;12772;49.794;10.024;2022-12-07T05:47:12;5.20;55.50
24636;DHT22;12772;49.794;10.024;2022-12-07T05:51:14;5.40;55.70
24636;DHT22;12772;49.794;10.024;2022-12-07T05:55:16;5.40;56.70
24636;DHT22;12772;49.794;10.024;2022-12-07T05:59:18;5.50;56.10
24636;DHT22;12772;49.794;10.024;2022-12-07T06:03:28;5.60;56.30
24636;DHT22;12772;49.794;10.024;2022-12-07T06:07:30;5.60;56.20
24636;DHT22;12772;49.794;10.024;2022-12-07T06:11:32;5.50;55.90
24636;DHT22;12772;49.794;10.024;2022-12-07T06:15:52;5.20;55.70
24636;DHT22;12772;49.794;10.024;2022-12-07T06:19:54;5.50;56.10
24636;DHT22;12772;49.794;10.024;2022-12-07T06:23:56;5.50;56.30
24636;DHT22;12772;49.794;10.024;2022-12-07T06:27:58;5.40;56.40
24636;DHT22;12772;49.794;10.024;2022-12-07T06:32:00;5.40;56.60
24636;DHT22;12772;49.794;10.024;2022-12-07T06:36:02;4.90;56.30
24636;DHT22;12772;49.794;10.024;2022-12-07T06:40:05;5.60;57.10
24636;DHT22;12772;49.794;10.024;2022-12-07T06:44:07;5.40;57.30
24636;DHT22;12772;49.794;10.024;2022-12-07T06:48:09;5.40;57.60
24636;DHT22;12772;49.794;10.024;2022-12-07T06:52:11;4.90;57.00
24636;DHT22;12772;49.794;10.024;2022-12-07T06:56:13;5.40;57.50
24636;DHT22;12772;49.794;10.024;2022-12-07T07:00:16;5.50;57.80
24636;DHT22;12772;49.794;10.024;2022-12-07T07:04:18;5.50;57.80
24636;DHT22;12772;49.794;10.024;2022-12-07T07:08:20;5.10;57.10
24636;DHT22;12772;49.794;10.024;2022-12-07T07:12:22;5.50;57.50
24636;DHT22;12772;49.794;10.024;2022-12-07T07:16:24;5.50;57.50
24636;DHT22;12772;49.794;10.024;2022-12-07T07:20:26;5.60;57.60
24636;DHT22;12772;49.794;10.024;2022-12-07T07:24:28;5.70;57.90
24636;DHT22;12772;49.794;10.024;2022-12-07T07:28:30;5.50;57.80
24636;DHT22;12772;49.794;10.024;2022-12-07T07:32:33;5.20;57.40
24636;DHT22;12772;49.794;10.024;2022-12-07T07:36:35;5.80;58.00
24636;DHT22;12772;49.794;10.024;2022-12-07T07:40:37;5.70;58.00
24636;DHT22;12772;49.794;10.024;2022-12-07T07:44:39;5.50;57.70
24636;DHT22;12772;49.794;10.024;2022-12-07T07:48:41;5.70;58.10
24636;DHT22;12772;49.794;10.024;2022-12-07T07:52:43;5.70;58.10
24636;DHT22;12772;49.794;10.024;2022-12-07T07:56:45;5.50;57.70
24636;DHT22;12772;49.794;10.024;2022-12-07T08:00:47;5.70;57.90
24636;DHT22;12772;49.794;10.024;2022-12-07T08:04:49;5.40;57.80
24636;DHT22;12772;49.794;10.024;2022-12-07T08:08:52;5.70;57.90
24636;DHT22;12772;49.794;10.024;2022-12-07T08:12:54;5.80;58.00
24636;DHT22;12772;49.794;10.024;2022-12-07T08:17:19;5.90;58.30
24636;DHT22;12772;49.794;10.024;2022-12-07T08:21:21;6.00;58.50
24636;DHT22;12772;49.794;10.024;2022-12-07T08:25:23;5.40;58.00
24636;DHT22;12772;49.794;10.024;2022-12-07T08:29:25;5.30;57.80
24636;DHT22;12772;49.794;10.024;2022-12-07T08:33:28;5.90;58.60
24636;DHT22;12772;49.794;10.024;2022-12-07T08:37:31;5.70;58.30
24636;DHT22;12772;49.794;10.024;2022-12-07T08:41:33;5.50;58.10
24636;DHT22;12772;49.794;10.024;2022-12-07T08:45:36;5.70;58.30
24636;DHT22;12772;49.794;10.024;2022-12-07T08:49:41;5.90;58.40
24636;DHT22;12772;49.794;10.024;2022-12-07T08:53:44;6.00;58.50
24636;DHT22;12772;49.794;10.024;2022-12-07T08:57:48;5.60;58.00
24636;DHT22;12772;49.794;10.024;2022-12-07T09:01:50;6.00;58.60
24636;DHT22;12772;49.794;10.024;2022-12-07T09:05:53;6.10;58.60
24636;DHT22;12772;49.794;10.024;2022-12-07T09:09:56;6.30;58.70
24636;DHT22;12772;49.794;10.024;2022-12-07T09:13:58;6.20;58.50
24636;DHT22;12772;49.794;10.024;2022-12-07T09:18:00;6.40;58.50
24636;DHT22;12772;49.794;10.024;2022-12-07T09:22:03;6.30;58.60
24636;DHT22;12772;49.794;10.024;2022-12-07T09:26:05;6.00;58.30
24636;DHT22;12772;49.794;10.024;2022-12-07T09:30:07;6.00;58.10
24636;DHT22;12772;49.794;10.024;2022-12-07T09:34:09;6.40;58.50
24636;DHT22;12772;49.794;10.024;2022-12-07T09:38:12;6.00;58.30
24636;DHT22;12772;49.794;10.024;2022-12-07T09:42:29;6.50;58.90
24636;DHT22;12772;49.794;10.024;2022-12-07T09:46:38;6.40;58.50
24636;DHT22;12772;49.794;10.024;2022-12-07T09:50:40;5.90;57.90
24636;DHT22;12772;49.794;10.024;2022-12-07T09:54:49;6.40;58.40
24636;DHT22;12772;49.794;10.024;2022-12-07T09:59:00;6.50;58.40
24636;DHT22;12772;49.794;10.024;2022-12-07T10:03:02;6.40;58.30
24636;DHT22;12772;49.794;10.024;2022-12-07T10:07:04;6.40;58.20
24636;DHT22;12772;49.794;10.024;2022-12-07T10:11:07;6.10;57.90
24636;DHT22;12772;49.794;10.024;2022-12-07T10:15:11;6.10;58.00
24636;DHT22;12772;49.794;10.024;2022-12-07T10:19:21;6.50;58.50
24636;DHT22;12772;49.794;10.024;2022-12-07T10:23:24;6.40;58.20
24636;DHT22;12772;49.794;10.024;2022-12-07T10:27:30;6.30;57.90
24636;DHT22;12772;49.794;10.024;2022-12-07T10:31:32;6.50;57.70
24636;DHT22;12772;49.794;10.024;2022-12-07T10:35:43;6.60;58.00
24636;DHT22;12772;49.794;10.024;2022-12-07T10:43:52;6.50;58.10
24636;DHT22;12772;49.794;10.024;2022-12-07T10:53:12;6.80;58.20
24636;DHT22;12772;49.794;10.024;2022-12-07T11:10:52;6.70;57.30
24636;DHT22;12772;49.794;10.024;2022-12-07T11:19:17;6.70;57.10
24636;DHT22;12772;49.794;10.024;2022-12-07T11:23:48;7.00;57.00
24636;DHT22;12772;49.794;10.024;2022-12-07T11:36:50;6.80;56.30
24636;DHT22;12772;49.794;10.024;2022-12-07T11:40:58;6.60;55.60
24636;DHT22;12772;49.794;10.024;2022-12-07T11:45:17;6.50;54.90
24636;DHT22;12772;49.794;10.024;2022-12-07T11:49:47;6.80;55.10
24636;DHT22;12772;49.794;10.024;2022-12-07T11:53:59;7.10;55.10
24636;DHT22;12772;49.794;10.024;2022-12-07T11:58:10;7.20;55.20
24636;DHT22;12772;49.794;10.024;2022-12-07T12:02:26;7.00;55.00
24636;DHT22;12772;49.794;10.024;2022-12-07T12:06:30;6.60;54.60
24636;DHT22;12772;49.794;10.024;2022-12-07T12:10:37;6.50;54.50
24636;DHT22;12772;49.794;10.024;2022-12-07T12:15:15;7.30;55.30
24636;DHT22;12772;49.794;10.024;2022-12-07T12:19:38;7.10;54.30
24636;DHT22;12772;49.794;10.024;2022-12-07T12:23:49;7.10;54.30
24636;DHT22;12772;49.794;10.024;2022-12-07T12:27:58;7.10;54.90
24636;DHT22;12772;49.794;10.024;2022-12-07T12:32:22;7.30;54.30
24636;DHT22;12772;49.794;10.024;2022-12-07T12:36:43;7.20;54.30
24636;DHT22;12772;49.794;10.024;2022-12-07T12:40:45;6.80;53.70
24636;DHT22;12772;49.794;10.024;2022-12-07T12:45:11;7.30;54.40
24636;DHT22;12772;49.794;10.024;2022-12-07T12:53:24;7.50;53.80
24636;DHT22;12772;49.794;10.024;2022-12-07T12:57:29;7.00;52.80
24636;DHT22;12772;49.794;10.024;2022-12-07T13:01:40;7.40;53.40
24636;DHT22;12772;49.794;10.024;2022-12-07T13:05:43;7.60;53.50
24636;DHT22;12772;49.794;10.024;2022-12-07T13:09:45;7.30;53.40
24636;DHT22;12772;49.794;10.024;2022-12-07T13:13:47;7.00;53.40
24636;DHT22;12772;49.794;10.024;2022-12-07T13:17:57;7.20;54.20
24636;DHT22;12772;49.794;10.024;2022-12-07T13:22:01;7.40;54.80
24636;DHT22;12772;49.794;10.024;2022-12-07T13:30:24;7.10;55.10
24636;DHT22;12772;49.794;10.024;2022-12-07T13:34:31;7.10;55.20
24636;DHT22;12772;49.794;10.024;2022-12-07T13:38:35;7.10;55.10
24636;DHT22;12772;49.794;10.024;2022-12-07T13:42:38;7.10;55.10
24636;DHT22;12772;49.794;10.024;2022-12-07T13:47:18;6.90;55.60
24636;DHT22;12772;49.794;10.024;2022-12-07T13:51:27;7.10;55.10
24636;DHT22;12772;49.794;10.024;2022-12-07T13:55:29;6.90;54.90
24636;DHT22;12772;49.794;10.024;2022-12-07T13:59:32;6.80;55.20
24636;DHT22;12772;49.794;10.024;2022-12-07T14:03:35;6.80;55.50
24636;DHT22;12772;49.794;10.024;2022-12-07T14:12:05;6.90;55.50
24636;DHT22;12772;49.794;10.024;2022-12-07T14:20:36;7.00;55.40
24636;DHT22;12772;49.794;10.024;2022-12-07T14:24:42;6.90;55.00
24636;DHT22;12772;49.794;10.024;2022-12-07T14:28:45;6.60;54.60
24636;DHT22;12772;49.794;10.024;2022-12-07T14:32:52;6.60;54.60
24636;DHT22;12772;49.794;10.024;2022-12-07T14:36:55;7.20;55.20
24636;DHT22;12772;49.794;10.024;2022-12-07T14:40:57;7.10;55.10
24636;DHT22;12772;49.794;10.024;2022-12-07T14:45:21;7.10;55.10
24636;DHT22;12772;49.794;10.024;2022-12-07T14:49:24;6.80;54.80
24636;DHT22;12772;49.794;10.024;2022-12-07T14:53:31;7.10;55.20
24636;DHT22;12772;49.794;10.024;2022-12-07T14:57:35;6.60;54.60
24636;DHT22;12772;49.794;10.024;2022-12-07T15:01:37;7.10;55.20
24636;DHT22;12772;49.794;10.024;2022-12-07T15:05:40;6.80;54.80
24636;DHT22;12772;49.794;10.024;2022-12-07T15:09:42;7.20;55.30
24636;DHT22;12772;49.794;10.024;2022-12-07T15:13:44;6.90;55.00
24636;DHT22;12772;49.794;10.024;2022-12-07T15:18:04;7.10;55.20
24636;DHT22;12772;49.794;10.024;2022-12-07T15:22:08;6.70;54.70
24636;DHT22;12772;49.794;10.024;2022-12-07T15:26:11;7.00;55.10
24636;DHT22;12772;49.794;10.024;2022-12-07T15:30:14;7.00;55.00
24636;DHT22;12772;49.794;10.024;2022-12-07T15:34:16;6.90;54.90
24636;DHT22;12772;49.794;10.024;2022-12-07T15:38:18;6.50;54.50
24636;DHT22;12772;49.794;10.024;2022-12-07T15:42:20;6.50;54.50
24636;DHT22;12772;49.794;10.024;2022-12-07T15:46:22;7.00;55.00
24636;DHT22;12772;49.794;10.024;2022-12-07T15:50:25;6.50;54.50
24636;DHT22;12772;49.794;10.024;2022-12-07T15:54:28;7.00;55.00
24636;DHT22;12772;49.794;10.024;2022-12-07T15:58:31;6.80;54.80
24636;DHT22;12772;49.794;10.024;2022-12-07T16:02:33;6.50;54.50
24636;DHT22;12772;49.794;10.024;2022-12-07T16:06:35;6.90;54.90
24636;DHT22;12772;49.794;10.024;2022-12-07T16:10:37;6.90;55.00
24636;DHT22;12772;49.794;10.024;2022-12-07T16:14:40;6.80;54.80
24636;DHT22;12772;49.794;10.024;2022-12-07T16:18:43;6.80;54.80
24636;DHT22;12772;49.794;10.024;2022-12-07T16:22:45;6.40;54.40
24636;DHT22;12772;49.794;10.024;2022-12-07T16:26:48;6.20;54.20
24636;DHT22;12772;49.794;10.024;2022-12-07T16:31:03;6.50;55.30
24636;DHT22;12772;49.794;10.024;2022-12-07T16:35:06;6.00;54.70
24636;DHT22;12772;49.794;10.024;2022-12-07T16:39:09;6.40;55.60
24636;DHT22;12772;49.794;10.024;2022-12-07T16:43:13;6.20;55.80
24636;DHT22;12772;49.794;10.024;2022-12-07T16:47:15;6.30;55.80
24636;DHT22;12772;49.794;10.024;2022-12-07T16:51:17;6.20;56.10
24636;DHT22;12772;49.794;10.024;2022-12-07T16:55:19;6.30;56.70
24636;DHT22;12772;49.794;10.024;2022-12-07T16:59:21;6.00;56.20
24636;DHT22;12772;49.794;10.024;2022-12-07T17:03:23;6.00;56.30
24636;DHT22;12772;49.794;10.024;2022-12-07T17:07:25;5.70;56.00
24636;DHT22;12772;49.794;10.024;2022-12-07T17:11:29;5.70;56.00
24636;DHT22;12772;49.794;10.024;2022-12-07T17:15:32;6.20;56.40
24636;DHT22;12772;49.794;10.024;2022-12-07T17:19:34;6.20;56.50
24636;DHT22;12772;49.794;10.024;2022-12-07T17:23:36;6.10;56.30
24636;DHT22;12772;49.794;10.024;2022-12-07T17:27:39;6.30;56.90
24636;DHT22;12772;49.794;10.024;2022-12-07T17:31:41;5.60;56.40
24636;DHT22;12772;49.794;10.024;2022-12-07T17:35:43;5.70;56.40
24636;DHT22;12772;49.794;10.024;2022-12-07T17:39:45;5.90;56.60
24636;DHT22;12772;49.794;10.024;2022-12-07T17:43:47;6.20;56.90
24636;DHT22;12772;49.794;10.024;2022-12-07T17:47:49;6.10;57.00
24636;DHT22;12772;49.794;10.024;2022-12-07T17:51:51;6.00;56.90
24636;DHT22;12772;49.794;10.024;2022-12-07T17:56:11;6.00;56.60
24636;DHT22;12772;49.794;10.024;2022-12-07T18:00:14;6.20;56.80
24636;DHT22;12772;49.794;10.024;2022-12-07T18:04:16;6.20;56.80
24636;DHT22;12772;49.794;10.024;2022-12-07T18:08:18;6.20;56.70
24636;DHT22;12772;49.794;10.024;2022-12-07T18:12:20;6.10;56.90
24636;DHT22;12772;49.794;10.024;2022-12-07T18:16:25;6.20;57.30
24636;DHT22;12772;49.794;10.024;2022-12-07T18:20:27;5.70;56.90
24636;DHT22;12772;49.794;10.024;2022-12-07T18:24:30;6.00;57.40
24636;DHT22;12772;49.794;10.024;2022-12-07T18:28:32;6.10;57.90
24636;DHT22;12772;49.794;10.024;2022-12-07T18:32:34;5.70;57.80
24636;DHT22;12772;49.794;10.024;2022-12-07T18:36:36;6.10;58.50
24636;DHT22;12772;49.794;10.024;2022-12-07T18:40:39;6.00;58.50
24636;DHT22;12772;49.794;10.024;2022-12-07T18:44:41;6.20;59.00
24636;DHT22;12772;49.794;10.024;2022-12-07T18:48:43;6.20;59.10
24636;DHT22;12772;49.794;10.024;2022-12-07T18:52:45;5.60;58.50
24636;DHT22;12772;49.794;10.024;2022-12-07T18:56:47;6.20;59.20
24636;DHT22;12772;49.794;10.024;2022-12-07T19:00:50;5.70;59.00
24636;DHT22;12772;49.794;10.024;2022-12-07T19:04:52;5.80;59.10
24636;DHT22;12772;49.794;10.024;2022-12-07T19:08:54;5.90;59.10
24636;DHT22;12772;49.794;10.024;2022-12-07T19:12:56;5.60;58.90
24636;DHT22;12772;49.794;10.024;2022-12-07T19:17:05;6.00;59.30
24636;DHT22;12772;49.794;10.024;2022-12-07T19:21:07;5.60;58.70
24636;DHT22;12772;49.794;10.024;2022-12-07T19:25:09;5.80;58.90
24636;DHT22;12772;49.794;10.024;2022-12-07T19:29:11;5.60;58.60
24636;DHT22;12772;49.794;10.024;2022-12-07T19:33:13;6.10;59.10
24636;DHT22;12772;49.794;10.024;2022-12-07T19:37:16;6.00;59.20
24636;DHT22;12772;49.794;10.024;2022-12-07T19:41:18;6.00;59.10
24636;DHT22;12772;49.794;10.024;2022-12-07T19:45:36;5.50;58.80
24636;DHT22;12772;49.794;10.024;2022-12-07T19:49:38;6.00;59.20
24636;DHT22;12772;49.794;10.024;2022-12-07T19:53:40;6.20;59.50
24636;DHT22;12772;49.794;10.024;2022-12-07T19:57:42;6.20;59.30
24636;DHT22;12772;49.794;10.024;2022-12-07T20:01:44;6.10;59.00
24636;DHT22;12772;49.794;10.024;2022-12-07T20:05:46;5.70;58.80
24636;DHT22;12772;49.794;10.024;2022-12-07T20:09:48;6.00;59.30
24636;DHT22;12772;49.794;10.024;2022-12-07T20:13:51;6.30;59.70
24636;DHT22;12772;49.794;10.024;2022-12-07T20:17:53;6.20;59.30
24636;DHT22;12772;49.794;10.024;2022-12-07T20:22:08;6.10;58.90
24636;DHT22;12772;49.794;10.024;2022-12-07T20:26:12;5.60;58.50
24636;DHT22;12772;49.794;10.024;2022-12-07T20:30:15;5.60;58.60
24636;DHT22;12772;49.794;10.024;2022-12-07T20:34:17;5.50;58.80
24636;DHT22;12772;49.794;10.024;2022-12-07T20:38:19;5.40;58.90
24636;DHT22;12772;49.794;10.024;2022-12-07T20:42:21;5.20;59.00
24636;DHT22;12772;49.794;10.024;2022-12-07T20:46:38;5.30;59.30
24636;DHT22;12772;49.794;10.024;2022-12-07T20:50:40;5.50;59.90
24636;DHT22;12772;49.794;10.024;2022-12-07T20:54:42;5.50;59.90
24636;DHT22;12772;49.794;10.024;2022-12-07T20:58:44;5.50;59.70
24636;DHT22;12772;49.794;10.024;2022-12-07T21:02:47;5.50;59.60
24636;DHT22;12772;49.794;10.024;2022-12-07T21:06:49;5.70;59.60
24636;DHT22;12772;49.794;10.024;2022-12-07T21:10:51;5.80;59.50
24636;DHT22;12772;49.794;10.024;2022-12-07T21:14:53;5.40;59.20
24636;DHT22;12772;49.794;10.024;2022-12-07T21:18:57;5.40;59.20
24636;DHT22;12772;49.794;10.024;2022-12-07T21:22:59;5.60;59.40
24636;DHT22;12772;49.794;10.024;2022-12-07T21:27:02;5.90;59.40
24636;DHT22;12772;49.794;10.024;2022-12-07T21:31:04;5.80;59.10
24636;DHT22;12772;49.794;10.024;2022-12-07T21:35:06;5.60;59.00
24636;DHT22;12772;49.794;10.024;2022-12-07T21:39:09;5.80;58.90
24636;DHT22;12772;49.794;10.024;2022-12-07T21:43:11;5.80;59.20
24636;DHT22;12772;49.794;10.024;2022-12-07T21:47:13;5.50;58.80
24636;DHT22;12772;49.794;10.024;2022-12-07T21:51:15;5.80;59.00
24636;DHT22;12772;49.794;10.024;2022-12-07T21:55:21;5.80;59.10
24636;DHT22;12772;49.794;10.024;2022-12-07T21:59:23;5.20;58.40
24636;DHT22;12772;49.794;10.024;2022-12-07T22:03:25;5.50;58.70
24636;DHT22;12772;49.794;10.024;2022-12-07T22:07:27;5.40;58.60
24636;DHT22;12772;49.794;10.024;2022-12-07T22:11:29;5.40;58.70
24636;DHT22;12772;49.794;10.024;2022-12-07T22:15:31;5.50;58.40
24636;DHT22;12772;49.794;10.024;2022-12-07T22:19:33;5.30;58.20
24636;DHT22;12772;49.794;10.024;2022-12-07T22:23:35;5.60;58.80
24636;DHT22;12772;49.794;10.024;2022-12-07T22:27:38;5.50;58.70
24636;DHT22;12772;49.794;10.024;2022-12-07T22:31:40;5.60;59.10
24636;DHT22;12772;49.794;10.024;2022-12-07T22:35:42;5.60;59.00
24636;DHT22;12772;49.794;10.024;2022-12-07T22:39:46;5.70;59.00
24636;DHT22;12772;49.794;10.024;2022-12-07T22:43:48;5.50;58.80
24636;DHT22;12772;49.794;10.024;2022-12-07T22:47:50;5.30;58.90
24636;DHT22;12772;49.794;10.024;2022-12-07T22:51:52;5.00;58.80
24636;DHT22;12772;49.794;10.024;2022-12-07T22:55:54;5.40;59.10
24636;DHT22;12772;49.794;10.024;2022-12-07T22:59:56;4.90;58.70
24636;DHT22;12772;49.794;10.024;2022-12-07T23:03:58;5.10;59.30
24636;DHT22;12772;49.794;10.024;2022-12-07T23:08:00;5.40;60.30
24636;DHT22;12772;49.794;10.024;2022-12-07T23:12:02;5.10;59.50
24636;DHT22;12772;49.794;10.024;2022-12-07T23:16:22;5.40;59.30
24636;DHT22;12772;49.794;10.024;2022-12-07T23:20:24;5.30;59.10
24636;DHT22;12772;49.794;10.024;2022-12-07T23:24:26;5.10;59.00
24636;DHT22;12772;49.794;10.024;2022-12-07T23:28:28;5.20;59.50
24636;DHT22;12772;49.794;10.024;2022-12-07T23:32:30;5.40;59.50
24636;DHT22;12772;49.794;10.024;2022-12-07T23:36:33;4.80;59.10
24636;DHT22;12772;49.794;10.024;2022-12-07T23:40:35;5.30;59.30
24636;DHT22;12772;49.794;10.024;2022-12-07T23:44:38;5.10;59.50
24636;DHT22;12772;49.794;10.024;2022-12-07T23:48:40;4.90;58.50
24636;DHT22;12772;49.794;10.024;2022-12-07T23:52:42;5.10;58.70
24636;DHT22;12772;49.794;10.024;2022-12-07T23:56:44;4.70;58.40
